sensor_id;sensor_type;location;lat;lon;timestamp;P1;durP1;ratioP1;P2;durP2;ratioP2
10440;SDS011;5268;49.346;9.522;2023-11-21T04:05:46;3.83;;;2.17;;
10440;SDS011;5268;49.346;9.522;2023-11-21T04:10:48;4.38;;;2.10;;
10440;SDS011;5268;49.346;9.522;2023-11-21T04:15:50;3.90;;;1.98;;
10440;SDS011;5268;49.346;9.522;2023-11-21T04:20:54;7.25;;;2.00;;
10440;SDS011;5268;49.346;9.522;2023-11-21T04:25:56;2.63;;;1.73;;
10440;SDS011;5268;49.346;9.522;2023-11-21T04:30:59;4.07;;;2.22;;
10440;SDS011;5268;49.346;9.522;2023-11-21T04:36:03;5.25;;;2.25;;
10440;SDS011;5268;49.346;9.522;2023-11-21T04:41:05;3.63;;;2.50;;
10440;SDS011;5268;49.346;9.522;2023-11-21T04:46:07;4.88;;;4.00;;
10440;SDS011;5268;49.346;9.522;2023-11-21T04:51:11;7.00;;;4.75;;
10440;SDS011;5268;49.346;9.522;2023-11-21T04:56:13;4.32;;;2.33;;
10440;SDS011;5268;49.346;9.522;2023-11-21T05:01:16;4.07;;;2.40;;
10440;SDS011;5268;49.346;9.522;2023-11-21T05:06:19;4.57;;;2.10;;
10440;SDS011;5268;49.346;9.522;2023-11-21T05:11:24;12.70;;;9.05;;
10440;SDS011;5268;49.346;9.522;2023-11-21T05:16:26;6.60;;;5.63;;
10440;SDS011;5268;49.346;9.522;2023-11-21T05:21:30;4.47;;;2.65;;
10440;SDS011;5268;49.346;9.522;2023-11-21T05:26:32;3.95;;;2.53;;
10440;SDS011;5268;49.346;9.522;2023-11-21T05:31:34;5.88;;;2.53;;
10440;SDS011;5268;49.346;9.522;2023-11-21T05:36:37;4.05;;;2.40;;
10440;SDS011;5268;49.346;9.522;2023-11-21T05:41:40;2.92;;;1.92;;
10440;SDS011;5268;49.346;9.522;2023-11-21T05:46:42;3.35;;;2.17;;
10440;SDS011;5268;49.346;9.522;2023-11-21T05:51:45;4.05;;;2.30;;
10440;SDS011;5268;49.346;9.522;2023-11-21T05:56:47;2.60;;;2.10;;
10440;SDS011;5268;49.346;9.522;2023-11-21T06:01:49;3.72;;;2.30;;
10440;SDS011;5268;49.346;9.522;2023-11-21T06:06:53;2.88;;;1.92;;
10440;SDS011;5268;49.346;9.522;2023-11-21T06:11:55;3.92;;;2.28;;
10440;SDS011;5268;49.346;9.522;2023-11-21T06:16:57;3.05;;;2.70;;
10440;SDS011;5268;49.346;9.522;2023-11-21T06:22:01;4.53;;;2.50;;
10440;SDS011;5268;49.346;9.522;2023-11-21T06:27:03;3.80;;;2.50;;
10440;SDS011;5268;49.346;9.522;2023-11-21T06:32:06;4.55;;;3.00;;
10440;SDS011;5268;49.346;9.522;2023-11-21T06:37:10;4.57;;;2.80;;
10440;SDS011;5268;49.346;9.522;2023-11-21T06:42:13;5.38;;;3.00;;
10440;SDS011;5268;49.346;9.522;2023-11-21T06:47:15;4.35;;;3.00;;
10440;SDS011;5268;49.346;9.522;2023-11-21T06:52:19;4.78;;;2.78;;
10440;SDS011;5268;49.346;9.522;2023-11-21T06:57:22;5.97;;;3.60;;
10440;SDS011;5268;49.346;9.522;2023-11-21T07:02:25;4.93;;;3.30;;
10440;SDS011;5268;49.346;9.522;2023-11-21T07:07:28;6.60;;;3.47;;
10440;SDS011;5268;49.346;9.522;2023-11-21T07:12:30;4.63;;;3.85;;
10440;SDS011;5268;49.346;9.522;2023-11-21T07:17:32;4.90;;;3.58;;
10440;SDS011;5268;49.346;9.522;2023-11-21T07:22:36;6.05;;;3.70;;
10440;SDS011;5268;49.346;9.522;2023-11-21T07:27:38;4.82;;;3.50;;
10440;SDS011;5268;49.346;9.522;2023-11-21T07:32:40;7.68;;;3.97;;
10440;SDS011;5268;49.346;9.522;2023-11-21T07:37:44;5.63;;;3.58;;
10440;SDS011;5268;49.346;9.522;2023-11-21T07:42:47;4.63;;;3.88;;
10440;SDS011;5268;49.346;9.522;2023-11-21T07:47:50;7.00;;;5.40;;
10440;SDS011;5268;49.346;9.522;2023-11-21T07:52:53;7.93;;;5.78;;
10440;SDS011;5268;49.346;9.522;2023-11-21T07:57:55;8.15;;;4.25;;
10440;SDS011;5268;49.346;9.522;2023-11-21T08:02:57;4.70;;;4.20;;
10440;SDS011;5268;49.346;9.522;2023-11-21T08:08:01;5.28;;;3.95;;
10440;SDS011;5268;49.346;9.522;2023-11-21T08:13:03;5.05;;;4.15;;
10440;SDS011;5268;49.346;9.522;2023-11-21T08:18:05;7.57;;;5.35;;
10440;SDS011;5268;49.346;9.522;2023-11-21T08:23:09;7.57;;;5.88;;
10440;SDS011;5268;49.346;9.522;2023-11-21T08:28:11;7.40;;;5.65;;
10440;SDS011;5268;49.346;9.522;2023-11-21T08:33:14;6.80;;;4.80;;
10440;SDS011;5268;49.346;9.522;2023-11-21T08:38:17;6.22;;;4.68;;
10440;SDS011;5268;49.346;9.522;2023-11-21T08:43:19;7.60;;;6.90;;
10440;SDS011;5268;49.346;9.522;2023-11-21T08:48:21;6.57;;;5.30;;
10440;SDS011;5268;49.346;9.522;2023-11-21T08:53:25;8.48;;;5.90;;
10440;SDS011;5268;49.346;9.522;2023-11-21T08:58:27;8.77;;;7.18;;
10440;SDS011;5268;49.346;9.522;2023-11-21T09:03:29;9.10;;;6.00;;
10440;SDS011;5268;49.346;9.522;2023-11-21T09:08:33;8.57;;;6.10;;
10440;SDS011;5268;49.346;9.522;2023-11-21T09:13:35;8.00;;;5.88;;
10440;SDS011;5268;49.346;9.522;2023-11-21T09:18:37;6.63;;;5.75;;
10440;SDS011;5268;49.346;9.522;2023-11-21T09:23:42;9.38;;;6.82;;
10440;SDS011;5268;49.346;9.522;2023-11-21T09:28:45;8.07;;;5.68;;
10440;SDS011;5268;49.346;9.522;2023-11-21T09:33:47;5.25;;;4.75;;
10440;SDS011;5268;49.346;9.522;2023-11-21T09:38:51;3.15;;;2.70;;
10440;SDS011;5268;49.346;9.522;2023-11-21T09:43:55;1.35;;;1.17;;
10440;SDS011;5268;49.346;9.522;2023-11-21T09:49:00;1.90;;;1.70;;
10440;SDS011;5268;49.346;9.522;2023-11-21T09:54:10;1.77;;;0.85;;
10440;SDS011;5268;49.346;9.522;2023-11-21T09:59:13;2.05;;;0.70;;
10440;SDS011;5268;49.346;9.522;2023-11-21T10:04:16;0.70;;;0.60;;
10440;SDS011;5268;49.346;9.522;2023-11-21T10:09:23;1.70;;;0.73;;
10440;SDS011;5268;49.346;9.522;2023-11-21T10:14:27;2.03;;;1.27;;
10440;SDS011;5268;49.346;9.522;2023-11-21T10:19:30;3.92;;;1.63;;
10440;SDS011;5268;49.346;9.522;2023-11-21T10:24:33;2.25;;;1.60;;
10440;SDS011;5268;49.346;9.522;2023-11-21T10:29:37;3.30;;;2.15;;
10440;SDS011;5268;49.346;9.522;2023-11-21T10:34:41;3.58;;;2.20;;
10440;SDS011;5268;49.346;9.522;2023-11-21T10:39:45;2.42;;;1.67;;
10440;SDS011;5268;49.346;9.522;2023-11-21T10:44:47;2.30;;;1.88;;
10440;SDS011;5268;49.346;9.522;2023-11-21T10:49:51;2.38;;;1.90;;
10440;SDS011;5268;49.346;9.522;2023-11-21T10:54:55;1.73;;;1.40;;
10440;SDS011;5268;49.346;9.522;2023-11-21T10:59:59;1.67;;;1.27;;
10440;SDS011;5268;49.346;9.522;2023-11-21T11:05:01;1.45;;;1.30;;
10440;SDS011;5268;49.346;9.522;2023-11-21T11:10:08;1.80;;;1.60;;
10440;SDS011;5268;49.346;9.522;2023-11-21T11:15:15;2.35;;;1.50;;
10440;SDS011;5268;49.346;9.522;2023-11-21T11:20:17;2.70;;;1.90;;
10440;SDS011;5268;49.346;9.522;2023-11-21T11:25:45;3.65;;;2.30;;
10440;SDS011;5268;49.346;9.522;2023-11-21T11:31:01;2.70;;;2.50;;
10440;SDS011;5268;49.346;9.522;2023-11-21T11:36:13;2.58;;;1.90;;
10440;SDS011;5268;49.346;9.522;2023-11-21T11:41:28;2.97;;;2.10;;
10440;SDS011;5268;49.346;9.522;2023-11-21T11:46:39;3.00;;;2.05;;
10440;SDS011;5268;49.346;9.522;2023-11-21T11:51:45;2.50;;;2.00;;
10440;SDS011;5268;49.346;9.522;2023-11-21T11:56:48;3.05;;;2.35;;
10440;SDS011;5268;49.346;9.522;2023-11-21T12:01:51;1.83;;;1.50;;
10440;SDS011;5268;49.346;9.522;2023-11-21T12:06:53;2.85;;;1.67;;
10440;SDS011;5268;49.346;9.522;2023-11-21T12:11:57;1.90;;;1.70;;
10440;SDS011;5268;49.346;9.522;2023-11-21T12:17:00;2.15;;;1.42;;
10440;SDS011;5268;49.346;9.522;2023-11-21T12:22:04;5.47;;;3.40;;
10440;SDS011;5268;49.346;9.522;2023-11-21T12:27:09;4.95;;;3.10;;
10440;SDS011;5268;49.346;9.522;2023-11-21T12:32:14;4.25;;;3.65;;
10440;SDS011;5268;49.346;9.522;2023-11-21T12:37:18;5.03;;;4.25;;
10440;SDS011;5268;49.346;9.522;2023-11-21T12:42:21;7.25;;;4.63;;
10440;SDS011;5268;49.346;9.522;2023-11-21T12:47:24;5.57;;;4.78;;
10440;SDS011;5268;49.346;9.522;2023-11-21T12:52:25;5.40;;;4.82;;
10440;SDS011;5268;49.346;9.522;2023-11-21T12:57:29;6.68;;;5.15;;
10440;SDS011;5268;49.346;9.522;2023-11-21T13:02:32;6.30;;;5.32;;
10440;SDS011;5268;49.346;9.522;2023-11-21T13:07:40;7.28;;;5.10;;
10440;SDS011;5268;49.346;9.522;2023-11-21T13:12:48;7.72;;;4.88;;
10440;SDS011;5268;49.346;9.522;2023-11-21T13:17:52;8.05;;;5.38;;
10440;SDS011;5268;49.346;9.522;2023-11-21T13:22:56;7.40;;;5.13;;
10440;SDS011;5268;49.346;9.522;2023-11-21T13:28:00;8.15;;;5.18;;
10440;SDS011;5268;49.346;9.522;2023-11-21T13:33:03;6.80;;;5.50;;
10440;SDS011;5268;49.346;9.522;2023-11-21T13:38:08;7.72;;;4.22;;
10440;SDS011;5268;49.346;9.522;2023-11-21T13:43:13;4.63;;;3.95;;
10440;SDS011;5268;49.346;9.522;2023-11-21T13:48:15;5.25;;;3.40;;
10440;SDS011;5268;49.346;9.522;2023-11-21T13:53:25;4.05;;;3.17;;
10440;SDS011;5268;49.346;9.522;2023-11-21T13:58:28;6.05;;;3.05;;
10440;SDS011;5268;49.346;9.522;2023-11-21T14:03:41;4.90;;;3.50;;
10440;SDS011;5268;49.346;9.522;2023-11-21T14:08:52;3.35;;;2.13;;
10440;SDS011;5268;49.346;9.522;2023-11-21T14:13:58;5.68;;;3.13;;
10440;SDS011;5268;49.346;9.522;2023-11-21T14:19:00;4.57;;;3.42;;
10440;SDS011;5268;49.346;9.522;2023-11-21T14:24:14;4.07;;;2.50;;
10440;SDS011;5268;49.346;9.522;2023-11-21T14:29:19;3.58;;;2.30;;
10440;SDS011;5268;49.346;9.522;2023-11-21T14:34:22;2.15;;;1.80;;
10440;SDS011;5268;49.346;9.522;2023-11-21T14:39:26;2.85;;;2.10;;
10440;SDS011;5268;49.346;9.522;2023-11-21T14:44:30;4.13;;;1.77;;
10440;SDS011;5268;49.346;9.522;2023-11-21T14:49:38;3.33;;;1.83;;
10440;SDS011;5268;49.346;9.522;2023-11-21T14:54:52;4.43;;;2.35;;
10440;SDS011;5268;49.346;9.522;2023-11-21T15:00:16;2.25;;;1.70;;
10440;SDS011;5268;49.346;9.522;2023-11-21T15:05:43;4.15;;;1.83;;
10440;SDS011;5268;49.346;9.522;2023-11-21T15:10:45;3.13;;;1.60;;
10440;SDS011;5268;49.346;9.522;2023-11-21T15:15:54;3.30;;;1.35;;
10440;SDS011;5268;49.346;9.522;2023-11-21T15:20:56;3.08;;;1.30;;
10440;SDS011;5268;49.346;9.522;2023-11-21T15:25:58;2.67;;;1.20;;
10440;SDS011;5268;49.346;9.522;2023-11-21T15:31:03;2.28;;;1.50;;
10440;SDS011;5268;49.346;9.522;2023-11-21T15:36:05;3.35;;;1.50;;
10440;SDS011;5268;49.346;9.522;2023-11-21T15:41:10;2.80;;;1.40;;
10440;SDS011;5268;49.346;9.522;2023-11-21T15:46:13;2.80;;;1.45;;
10440;SDS011;5268;49.346;9.522;2023-11-21T15:51:15;2.40;;;1.40;;
10440;SDS011;5268;49.346;9.522;2023-11-21T15:56:17;3.38;;;2.00;;
10440;SDS011;5268;49.346;9.522;2023-11-21T16:01:20;4.55;;;2.08;;
10440;SDS011;5268;49.346;9.522;2023-11-21T16:06:22;4.25;;;2.10;;
10440;SDS011;5268;49.346;9.522;2023-11-21T16:11:25;5.05;;;4.20;;
10440;SDS011;5268;49.346;9.522;2023-11-21T16:16:31;16.65;;;12.85;;
10440;SDS011;5268;49.346;9.522;2023-11-21T16:21:33;13.23;;;7.38;;
10440;SDS011;5268;49.346;9.522;2023-11-21T16:26:36;14.00;;;10.90;;
10440;SDS011;5268;49.346;9.522;2023-11-21T16:31:39;10.05;;;6.88;;
10440;SDS011;5268;49.346;9.522;2023-11-21T16:36:41;9.88;;;7.57;;
10440;SDS011;5268;49.346;9.522;2023-11-21T16:41:44;10.35;;;8.18;;
10440;SDS011;5268;49.346;9.522;2023-11-21T16:46:49;8.65;;;6.32;;
10440;SDS011;5268;49.346;9.522;2023-11-21T16:51:53;5.05;;;3.55;;
10440;SDS011;5268;49.346;9.522;2023-11-21T16:56:55;8.23;;;5.50;;
10440;SDS011;5268;49.346;9.522;2023-11-21T17:01:58;7.53;;;5.05;;
10440;SDS011;5268;49.346;9.522;2023-11-21T17:07:01;6.03;;;5.28;;
10440;SDS011;5268;49.346;9.522;2023-11-21T17:12:03;6.28;;;5.53;;
10440;SDS011;5268;49.346;9.522;2023-11-21T17:17:08;7.70;;;5.60;;
10440;SDS011;5268;49.346;9.522;2023-11-21T17:22:13;7.85;;;4.75;;
10440;SDS011;5268;49.346;9.522;2023-11-21T17:27:15;13.43;;;9.77;;
10440;SDS011;5268;49.346;9.522;2023-11-21T17:32:19;11.43;;;8.70;;
10440;SDS011;5268;49.346;9.522;2023-11-21T17:37:21;11.38;;;7.18;;
10440;SDS011;5268;49.346;9.522;2023-11-21T17:42:23;6.50;;;4.65;;
10440;SDS011;5268;49.346;9.522;2023-11-21T17:47:26;7.15;;;3.75;;
10440;SDS011;5268;49.346;9.522;2023-11-21T17:52:28;4.93;;;2.60;;
10440;SDS011;5268;49.346;9.522;2023-11-21T17:57:31;20.67;;;14.93;;
10440;SDS011;5268;49.346;9.522;2023-11-21T18:02:37;15.63;;;10.35;;
10440;SDS011;5268;49.346;9.522;2023-11-21T18:07:39;7.07;;;4.05;;
10440;SDS011;5268;49.346;9.522;2023-11-21T18:12:41;7.10;;;5.20;;
10440;SDS011;5268;49.346;9.522;2023-11-21T18:17:44;8.95;;;6.68;;
10440;SDS011;5268;49.346;9.522;2023-11-21T18:22:46;9.60;;;3.97;;
10440;SDS011;5268;49.346;9.522;2023-11-21T18:27:48;8.45;;;5.90;;
10440;SDS011;5268;49.346;9.522;2023-11-21T18:32:52;6.10;;;4.35;;
10440;SDS011;5268;49.346;9.522;2023-11-21T18:37:54;7.63;;;4.07;;
10440;SDS011;5268;49.346;9.522;2023-11-21T18:42:56;6.53;;;3.72;;
10440;SDS011;5268;49.346;9.522;2023-11-21T18:48:00;7.00;;;3.70;;
10440;SDS011;5268;49.346;9.522;2023-11-21T18:53:04;6.60;;;4.30;;
10440;SDS011;5268;49.346;9.522;2023-11-21T18:58:06;6.82;;;4.95;;
10440;SDS011;5268;49.346;9.522;2023-11-21T19:03:09;6.95;;;5.07;;
10440;SDS011;5268;49.346;9.522;2023-11-21T19:08:12;12.82;;;9.05;;
10440;SDS011;5268;49.346;9.522;2023-11-21T19:13:14;11.13;;;7.00;;
10440;SDS011;5268;49.346;9.522;2023-11-21T19:18:19;8.13;;;5.15;;
10440;SDS011;5268;49.346;9.522;2023-11-21T19:23:21;8.00;;;4.50;;
10440;SDS011;5268;49.346;9.522;2023-11-21T19:28:24;11.18;;;6.53;;
10440;SDS011;5268;49.346;9.522;2023-11-21T19:33:27;6.53;;;5.13;;
10440;SDS011;5268;49.346;9.522;2023-11-21T19:38:30;7.82;;;5.22;;
10440;SDS011;5268;49.346;9.522;2023-11-21T19:43:32;7.65;;;4.40;;
10440;SDS011;5268;49.346;9.522;2023-11-21T19:48:37;6.32;;;5.18;;
10440;SDS011;5268;49.346;9.522;2023-11-21T19:53:41;10.25;;;7.32;;
10440;SDS011;5268;49.346;9.522;2023-11-21T19:58:43;10.07;;;5.75;;
10440;SDS011;5268;49.346;9.522;2023-11-21T20:03:46;18.73;;;10.82;;
10440;SDS011;5268;49.346;9.522;2023-11-21T20:08:48;14.50;;;11.40;;
10440;SDS011;5268;49.346;9.522;2023-11-21T20:13:51;16.67;;;12.95;;
10440;SDS011;5268;49.346;9.522;2023-11-21T20:18:54;13.63;;;8.73;;
10440;SDS011;5268;49.346;9.522;2023-11-21T20:23:57;12.93;;;9.90;;
10440;SDS011;5268;49.346;9.522;2023-11-21T20:28:59;14.43;;;12.52;;
10440;SDS011;5268;49.346;9.522;2023-11-21T20:34:02;15.68;;;11.38;;
10440;SDS011;5268;49.346;9.522;2023-11-21T20:39:05;14.27;;;8.38;;
10440;SDS011;5268;49.346;9.522;2023-11-21T20:44:08;11.52;;;8.20;;
10440;SDS011;5268;49.346;9.522;2023-11-21T20:49:11;13.85;;;9.75;;
10440;SDS011;5268;49.346;9.522;2023-11-21T20:54:14;13.27;;;8.20;;
10440;SDS011;5268;49.346;9.522;2023-11-21T20:59:16;13.93;;;9.38;;
10440;SDS011;5268;49.346;9.522;2023-11-21T21:04:19;17.17;;;10.60;;
10440;SDS011;5268;49.346;9.522;2023-11-21T21:09:21;13.80;;;8.07;;
10440;SDS011;5268;49.346;9.522;2023-11-21T21:14:23;17.80;;;11.43;;
10440;SDS011;5268;49.346;9.522;2023-11-21T21:19:30;21.15;;;13.30;;
10440;SDS011;5268;49.346;9.522;2023-11-21T21:24:32;10.73;;;7.50;;
10440;SDS011;5268;49.346;9.522;2023-11-21T21:29:34;26.60;;;15.90;;
10440;SDS011;5268;49.346;9.522;2023-11-21T21:34:38;2.35;;;2.08;;
10440;SDS011;5268;49.346;9.522;2023-11-21T21:39:40;2.38;;;1.90;;
10440;SDS011;5268;49.346;9.522;2023-11-21T21:44:45;3.08;;;1.90;;
10440;SDS011;5268;49.346;9.522;2023-11-21T21:49:48;2.47;;;1.70;;
10440;SDS011;5268;49.346;9.522;2023-11-21T21:54:50;1.90;;;1.70;;
10440;SDS011;5268;49.346;9.522;2023-11-21T21:59:52;2.35;;;1.98;;
10440;SDS011;5268;49.346;9.522;2023-11-21T22:04:56;1.90;;;1.75;;
10440;SDS011;5268;49.346;9.522;2023-11-21T22:09:58;2.13;;;1.73;;
10440;SDS011;5268;49.346;9.522;2023-11-21T22:15:00;3.22;;;1.67;;
10440;SDS011;5268;49.346;9.522;2023-11-21T22:20:06;2.40;;;2.10;;
10440;SDS011;5268;49.346;9.522;2023-11-21T22:25:09;2.40;;;2.20;;
10440;SDS011;5268;49.346;9.522;2023-11-21T22:30:13;2.85;;;2.33;;
10440;SDS011;5268;49.346;9.522;2023-11-21T22:35:17;2.92;;;2.35;;
10440;SDS011;5268;49.346;9.522;2023-11-21T22:40:19;4.25;;;2.63;;
10440;SDS011;5268;49.346;9.522;2023-11-21T22:45:22;3.97;;;2.72;;
10440;SDS011;5268;49.346;9.522;2023-11-21T22:50:25;3.83;;;2.45;;
